Time;durP1;ratioP1;P1;durP2;ratioP2;P2;SDS_P1;SDS_P2;PMS_P1;PMS_P2;Temp;Humidity;BMP_temperature;BMP_pressure;BME280_temperature;BME280_humidity;BME280_pressure;Samples;Min_cycle;Max_cycle;Signal;HPM_P1;HPM_P2
2021/06/12 00:00:35;;;;;;;10.00;4.20;;;;;;;;;;5079796;28;20050;-56
2021/06/12 00:03:02;;;;;;;8.65;4.30;;;;;;;;;;5066152;28;20044;-58
2021/06/12 00:05:28;;;;;;;12.40;4.55;;;;;;;;;;5071207;28;20044;-59
2021/06/12 00:07:55;;;;;;;8.00;4.10;;;;;;;;;;5100142;28;20052;-54
2021/06/12 00:10:23;;;;;;;9.90;4.70;;;;;;;;;;5065256;28;20068;-52
2021/06/12 00:12:49;;;;;;;10.07;4.65;;;;;;;;;;5065685;28;20145;-51
2021/06/12 00:15:15;;;;;;;9.10;4.22;;;;;;;;;;5061955;28;20044;-50
2021/06/12 00:17:43;;;;;;;10.90;5.13;;;;;;;;;;5065995;28;20052;-51
2021/06/12 00:20:11;;;;;;;13.57;5.22;;;;;;;;;;5062391;28;20044;-54
2021/06/12 00:22:37;;;;;;;11.20;4.65;;;;;;;;;;5065932;28;20055;-52
2021/06/12 00:25:03;;;;;;;11.80;4.88;;;;;;;;;;5081077;28;20060;-54
2021/06/12 00:27:29;;;;;;;9.27;4.93;;;;;;;;;;5063847;28;20052;-57
2021/06/12 00:29:55;;;;;;;8.93;4.60;;;;;;;;;;5065070;28;20060;-56
2021/06/12 00:32:21;;;;;;;7.97;4.22;;;;;;;;;;5062564;28;20047;-56
2021/06/12 00:34:49;;;;;;;10.23;4.75;;;;;;;;;;5063830;28;20051;-57
2021/06/12 00:37:15;;;;;;;10.97;4.83;;;;;;;;;;5062373;28;20053;-56
2021/06/12 00:39:41;;;;;;;10.60;4.60;;;;;;;;;;5063911;28;20408;-58
2021/06/12 00:42:07;;;;;;;9.32;4.13;;;;;;;;;;5078415;28;20040;-58
2021/06/12 00:44:33;;;;;;;8.40;4.28;;;;;;;;;;5064091;28;20055;-55
2021/06/12 00:46:59;;;;;;;8.35;4.18;;;;;;;;;;5059053;28;20032;-57
2021/06/12 00:49:25;;;;;;;10.23;4.57;;;;;;;;;;5081246;28;20055;-56
2021/06/12 00:51:53;;;;;;;9.65;4.65;;;;;;;;;;5060044;28;20044;-52
2021/06/12 00:54:19;;;;;;;10.98;4.40;;;;;;;;;;5081723;28;20357;-56
2021/06/12 00:56:45;;;;;;;9.50;4.78;;;;;;;;;;5093572;28;20062;-55
2021/06/12 00:59:11;;;;;;;10.23;4.90;;;;;;;;;;5080681;28;20040;-54
2021/06/12 01:01:37;;;;;;;10.68;4.50;;;;;;;;;;5060636;28;20058;-56
2021/06/12 01:04:03;;;;;;;8.27;4.32;;;;;;;;;;5064194;28;20066;-58
2021/06/12 01:06:29;;;;;;;11.35;4.82;;;;;;;;;;5082641;28;20136;-55
2021/06/12 01:08:59;;;;;;;15.35;4.88;;;;;;;;;;5060426;28;20040;-58
2021/06/12 01:11:25;;;;;;;13.02;4.93;;;;;;;;;;5062490;28;20036;-58
2021/06/12 01:13:57;;;;;;;13.68;5.13;;;;;;;;;;5059665;28;20040;-57
2021/06/12 01:16:28;;;;;;;13.23;4.93;;;;;;;;;;5063349;28;20040;-53
2021/06/12 01:18:54;;;;;;;13.52;5.10;;;;;;;;;;5059573;28;20039;-57
2021/06/12 01:21:27;;;;;;;13.15;5.07;;;;;;;;;;5081243;28;20056;-57
2021/06/12 01:24:11;;;;;;;8.48;4.38;;;;;;;;;;5057981;28;20055;-55
2021/06/12 01:26:48;;;;;;;11.25;4.10;;;;;;;;;;5079957;28;20032;-58
2021/06/12 01:29:22;;;;;;;9.73;3.80;;;;;;;;;;5092256;28;20040;-56
2021/06/12 01:31:50;;;;;;;12.75;4.82;;;;;;;;;;5082776;28;20043;-54
2021/06/12 01:34:16;;;;;;;12.45;5.07;;;;;;;;;;5068931;28;20036;-53
2021/06/12 01:36:43;;;;;;;13.20;5.03;;;;;;;;;;5067110;28;20107;-57
2021/06/12 01:39:09;;;;;;;12.82;5.20;;;;;;;;;;5066257;28;20053;-51
2021/06/12 01:41:36;;;;;;;14.65;4.72;;;;;;;;;;5068848;28;20032;-57
2021/06/12 01:44:02;;;;;;;14.82;4.95;;;;;;;;;;5063953;28;20047;-55
2021/06/12 01:46:29;;;;;;;14.18;4.88;;;;;;;;;;5068706;28;20052;-55
2021/06/12 01:48:59;;;;;;;15.63;4.93;;;;;;;;;;5097838;28;20114;-51
2021/06/12 01:51:25;;;;;;;10.25;4.43;;;;;;;;;;5083629;28;20036;-52
2021/06/12 01:53:52;;;;;;;13.38;4.78;;;;;;;;;;5063905;28;20048;-56
2021/06/12 01:56:19;;;;;;;12.18;4.10;;;;;;;;;;5067026;28;20033;-55
2021/06/12 01:58:45;;;;;;;14.02;4.53;;;;;;;;;;5063971;28;20042;-54
2021/06/12 02:01:12;;;;;;;13.25;5.25;;;;;;;;;;5063133;28;20039;-50
2021/06/12 02:03:39;;;;;;;11.38;4.85;;;;;;;;;;5065613;28;20101;-52
2021/06/12 02:06:20;;;;;;;15.55;4.80;;;;;;;;;;5079996;28;20052;-54
2021/06/12 02:08:46;;;;;;;15.27;4.82;;;;;;;;;;5066953;28;20173;-55
2021/06/12 02:11:13;;;;;;;11.45;4.68;;;;;;;;;;5082489;28;20051;-51
2021/06/12 02:13:39;;;;;;;12.30;5.07;;;;;;;;;;5066985;28;20052;-54
2021/06/12 02:16:06;;;;;;;13.82;5.10;;;;;;;;;;5080824;28;20044;-54
2021/06/12 02:18:32;;;;;;;10.70;4.95;;;;;;;;;;5067653;28;20037;-56
2021/06/12 02:20:58;;;;;;;12.32;5.07;;;;;;;;;;5079360;28;20040;-53
2021/06/12 02:23:27;;;;;;;14.15;4.75;;;;;;;;;;5066656;28;20041;-55
2021/06/12 02:25:54;;;;;;;9.98;4.40;;;;;;;;;;5062994;28;20051;-50
2021/06/12 02:28:20;;;;;;;14.70;4.95;;;;;;;;;;5085992;28;20043;-56
2021/06/12 02:30:49;;;;;;;13.05;4.93;;;;;;;;;;5081932;28;20128;-55
2021/06/12 02:33:15;;;;;;;11.82;4.85;;;;;;;;;;5065384;28;20033;-56
2021/06/12 02:35:41;;;;;;;14.82;4.68;;;;;;;;;;5096725;28;20189;-55
2021/06/12 02:38:10;;;;;;;11.80;4.30;;;;;;;;;;5066364;28;20047;-58
2021/06/12 02:40:37;;;;;;;15.30;5.45;;;;;;;;;;5059351;28;20134;-58
2021/06/12 02:43:04;;;;;;;12.33;4.83;;;;;;;;;;5064370;28;20033;-54
2021/06/12 02:45:30;;;;;;;13.02;4.85;;;;;;;;;;5059874;28;20281;-54
2021/06/12 02:47:58;;;;;;;13.52;4.97;;;;;;;;;;5062912;28;20076;-56
2021/06/12 02:50:25;;;;;;;16.40;4.97;;;;;;;;;;5062603;28;20049;-58
2021/06/12 02:52:54;;;;;;;10.88;4.97;;;;;;;;;;5062122;28;20106;-53
2021/06/12 02:55:21;;;;;;;10.27;4.47;;;;;;;;;;5063843;28;20041;-57
2021/06/12 02:57:50;;;;;;;15.32;5.00;;;;;;;;;;5061963;28;20060;-56
2021/06/12 03:00:15;;;;;;;;;;;;;;;;;;5064360;28;20044;-54
2021/06/12 03:02:42;;;;;;;11.57;4.68;;;;;;;;;;5057533;28;19921;-58
2021/06/12 03:05:12;;;;;;;15.63;4.47;;;;;;;;;;5080227;28;20081;-51
2021/06/12 03:07:39;;;;;;;17.17;5.30;;;;;;;;;;5059084;28;20052;-57
2021/06/12 03:10:06;;;;;;;11.75;4.50;;;;;;;;;;5063174;28;20154;-55
2021/06/12 03:12:33;;;;;;;14.38;4.78;;;;;;;;;;5060216;28;20040;-50
2021/06/12 03:15:01;;;;;;;14.52;4.15;;;;;;;;;;5063477;28;20041;-53
2021/06/12 03:17:29;;;;;;;13.60;5.00;;;;;;;;;;5061247;28;20092;-58
2021/06/12 03:19:56;;;;;;;12.93;4.15;;;;;;;;;;5064221;28;20092;-56
2021/06/12 03:22:23;;;;;;;9.70;4.45;;;;;;;;;;5061274;28;20059;-54
2021/06/12 03:24:49;;;;;;;13.30;4.80;;;;;;;;;;5064542;28;20051;-55
2021/06/12 03:27:15;;;;;;;10.88;4.18;;;;;;;;;;5059448;28;20079;-57
2021/06/12 03:29:41;;;;;;;12.95;4.20;;;;;;;;;;5079954;28;20041;-53
2021/06/12 03:32:09;;;;;;;10.80;4.47;;;;;;;;;;5063857;28;20041;-55
2021/06/12 03:34:35;;;;;;;14.55;5.13;;;;;;;;;;5075917;28;20141;-56
2021/06/12 03:37:02;;;;;;;12.93;4.90;;;;;;;;;;5062598;28;20088;-57
2021/06/12 03:39:28;;;;;;;14.07;4.38;;;;;;;;;;5052471;28;20041;-56
2021/06/12 03:41:54;;;;;;;13.98;5.25;;;;;;;;;;5045928;28;20060;-55
2021/06/12 03:44:21;;;;;;;11.65;4.72;;;;;;;;;;5059963;28;20044;-51
2021/06/12 03:46:50;;;;;;;13.27;4.15;;;;;;;;;;5063619;28;20045;-58
2021/06/12 03:49:18;;;;;;;13.02;4.80;;;;;;;;;;5075310;28;20033;-56
2021/06/12 03:51:45;;;;;;;13.85;4.80;;;;;;;;;;5044610;28;20130;-58
2021/06/12 03:54:11;;;;;;;11.05;4.68;;;;;;;;;;5042705;28;20036;-58
2021/06/12 03:56:38;;;;;;;16.50;5.03;;;;;;;;;;5045850;28;20408;-56
2021/06/12 03:59:05;;;;;;;10.90;4.95;;;;;;;;;;5042212;28;20122;-55
2021/06/12 04:01:31;;;;;;;9.90;4.75;;;;;;;;;;5078885;28;20036;-55
2021/06/12 04:03:57;;;;;;;10.45;4.45;;;;;;;;;;5040649;28;20049;-52
2021/06/12 04:06:26;;;;;;;10.95;5.18;;;;;;;;;;5079075;28;20056;-55
2021/06/12 04:08:52;;;;;;;14.05;4.75;;;;;;;;;;5060276;28;20029;-54
2021/06/12 04:11:18;;;;;;;12.20;4.75;;;;;;;;;;5045971;28;20044;-52
2021/06/12 04:13:44;;;;;;;13.02;4.78;;;;;;;;;;5045485;28;20071;-51
2021/06/12 04:16:10;;;;;;;13.20;4.72;;;;;;;;;;5059098;28;20041;-54
2021/06/12 04:18:36;;;;;;;15.82;5.35;;;;;;;;;;5064345;28;20047;-53
2021/06/12 04:21:03;;;;;;;11.50;4.85;;;;;;;;;;5075635;28;20041;-57
2021/06/12 04:23:31;;;;;;;11.50;4.82;;;;;;;;;;5063006;28;20052;-55
2021/06/12 04:25:56;;;;;;;9.85;4.97;;;;;;;;;;5045361;28;20033;-56
2021/06/12 04:28:23;;;;;;;11.75;5.30;;;;;;;;;;5044446;28;20060;-56
2021/06/12 04:30:50;;;;;;;11.65;4.78;;;;;;;;;;5043365;28;20044;-55
2021/06/12 04:33:17;;;;;;;14.75;5.93;;;;;;;;;;5045803;28;20044;-57
2021/06/12 04:35:43;;;;;;;13.57;5.43;;;;;;;;;;5039928;28;20076;-53
2021/06/12 04:38:09;;;;;;;15.43;6.22;;;;;;;;;;5045897;28;20088;-52
2021/06/12 04:40:37;;;;;;;11.65;5.60;;;;;;;;;;5077331;28;20085;-52
2021/06/12 04:43:03;;;;;;;13.18;5.55;;;;;;;;;;5081535;28;20048;-53
2021/06/12 04:45:29;;;;;;;13.00;5.38;;;;;;;;;;5062342;28;20040;-56
2021/06/12 04:47:56;;;;;;;13.23;5.53;;;;;;;;;;5064519;28;20044;-56
2021/06/12 04:50:22;;;;;;;12.10;5.40;;;;;;;;;;5063188;28;20094;-55
2021/06/12 04:52:48;;;;;;;16.67;5.88;;;;;;;;;;5097196;28;20047;-56
2021/06/12 04:55:14;;;;;;;14.02;5.25;;;;;;;;;;5065503;28;20037;-56
2021/06/12 04:57:42;;;;;;;14.60;5.45;;;;;;;;;;5060542;28;20076;-56
2021/06/12 05:00:10;;;;;;;12.23;5.57;;;;;;;;;;5063621;28;20075;-54
2021/06/12 05:02:38;;;;;;;14.20;6.03;;;;;;;;;;5060136;28;20036;-55
2021/06/12 05:05:04;;;;;;;14.90;5.72;;;;;;;;;;5081880;28;20040;-53
2021/06/12 05:07:30;;;;;;;14.63;5.93;;;;;;;;;;5061325;28;20040;-55
2021/06/12 05:09:56;;;;;;;15.23;5.63;;;;;;;;;;5063149;28;20045;-57
2021/06/12 05:12:22;;;;;;;19.20;7.80;;;;;;;;;;5058202;28;20051;-58
2021/06/12 05:14:52;;;;;;;14.57;6.05;;;;;;;;;;5063285;28;20040;-50
2021/06/12 05:17:19;;;;;;;15.13;5.82;;;;;;;;;;5078647;28;20040;-56
2021/06/12 05:19:45;;;;;;;18.55;5.90;;;;;;;;;;5090689;28;20064;-58
2021/06/12 05:22:11;;;;;;;15.95;5.50;;;;;;;;;;5061462;28;20095;-52
2021/06/12 05:24:37;;;;;;;14.55;5.45;;;;;;;;;;5083669;28;20044;-57
2021/06/12 05:27:04;;;;;;;15.52;6.20;;;;;;;;;;5081174;28;20044;-56
2021/06/12 05:29:29;;;;;;;19.85;5.45;;;;;;;;;;5066603;28;20033;-55
2021/06/12 05:31:57;;;;;;;14.25;5.35;;;;;;;;;;5083800;28;20046;-56
2021/06/12 05:34:23;;;;;;;11.43;5.43;;;;;;;;;;5087246;28;20056;-54
2021/06/12 05:36:49;;;;;;;14.88;5.00;;;;;;;;;;5066136;28;20029;-56
2021/06/12 05:39:15;;;;;;;12.27;4.72;;;;;;;;;;5055935;28;20040;-53
2021/06/12 05:41:41;;;;;;;13.90;4.85;;;;;;;;;;5047496;28;20089;-54
2021/06/12 05:44:09;;;;;;;13.80;5.28;;;;;;;;;;5064081;28;20053;-54
2021/06/12 05:46:35;;;;;;;12.77;4.90;;;;;;;;;;5047894;28;20052;-57
2021/06/12 05:49:03;;;;;;;14.15;5.10;;;;;;;;;;5060640;28;20037;-57
2021/06/12 05:51:29;;;;;;;12.15;5.05;;;;;;;;;;5048823;28;20045;-55
2021/06/12 05:53:55;;;;;;;16.42;5.13;;;;;;;;;;5042370;28;20065;-51
2021/06/12 05:56:21;;;;;;;12.05;5.70;;;;;;;;;;5048715;28;20143;-58
2021/06/12 05:58:46;;;;;;;14.82;4.75;;;;;;;;;;5043255;28;20033;-54
2021/06/12 06:01:13;;;;;;;10.38;4.03;;;;;;;;;;5064736;28;20071;-55
2021/06/12 06:03:39;;;;;;;11.98;5.10;;;;;;;;;;5043495;28;20170;-51
2021/06/12 06:06:11;;;;;;;12.60;4.65;;;;;;;;;;5064350;28;20049;-56
2021/06/12 06:08:37;;;;;;;10.55;4.95;;;;;;;;;;5068388;28;20041;-54
2021/06/12 06:11:04;;;;;;;11.57;4.10;;;;;;;;;;5072854;28;20156;-55
2021/06/12 06:13:35;;;;;;;11.27;4.53;;;;;;;;;;5049558;28;20060;-56
2021/06/12 06:16:01;;;;;;;12.18;4.25;;;;;;;;;;5063717;28;20045;-55
2021/06/12 06:18:27;;;;;;;13.77;5.00;;;;;;;;;;5050385;28;20106;-51
2021/06/12 06:20:53;;;;;;;17.02;5.70;;;;;;;;;;5045861;28;20052;-55
2021/06/12 06:23:21;;;;;;;9.48;4.47;;;;;;;;;;5050634;28;20049;-54
2021/06/12 06:25:47;;;;;;;8.85;3.92;;;;;;;;;;5046834;28;20093;-54
2021/06/12 06:28:14;;;;;;;13.32;4.13;;;;;;;;;;5052221;28;20024;-53
2021/06/12 06:30:40;;;;;;;13.23;4.53;;;;;;;;;;5045661;28;20060;-57
2021/06/12 06:33:06;;;;;;;12.30;4.03;;;;;;;;;;5051445;28;20047;-58
2021/06/12 06:35:33;;;;;;;9.57;3.88;;;;;;;;;;5046530;28;20041;-54
2021/06/12 06:37:59;;;;;;;9.95;4.00;;;;;;;;;;5049573;28;20049;-52
2021/06/12 06:40:27;;;;;;;8.23;3.50;;;;;;;;;;5044986;28;20145;-48
2021/06/12 06:42:53;;;;;;;9.77;3.80;;;;;;;;;;5066141;28;20044;-53
2021/06/12 06:45:21;;;;;;;12.10;3.53;;;;;;;;;;5046020;28;20036;-56
2021/06/12 06:47:47;;;;;;;9.05;3.45;;;;;;;;;;5067114;28;20048;-55
2021/06/12 06:50:15;;;;;;;8.63;3.90;;;;;;;;;;5070205;27;20125;-54
2021/06/12 06:52:41;;;;;;;14.33;4.03;;;;;;;;;;5050367;28;20040;-56
2021/06/12 06:55:08;;;;;;;12.93;3.70;;;;;;;;;;5049977;28;20326;-57
2021/06/12 06:57:36;;;;;;;17.45;4.03;;;;;;;;;;5044275;28;20039;-55
2021/06/12 07:00:02;;;;;;;;;;;;;;;;;;5050447;28;20040;-56
2021/06/12 07:02:31;;;;;;;7.53;2.80;;;;;;;;;;5050160;28;19944;-57
2021/06/12 07:04:57;;;;;;;11.05;3.92;;;;;;;;;;5065090;28;20123;-55
2021/06/12 07:07:24;;;;;;;12.27;3.40;;;;;;;;;;5061643;28;20041;-57
2021/06/12 07:09:51;;;;;;;12.43;3.55;;;;;;;;;;5044903;28;20033;-52
2021/06/12 07:12:17;;;;;;;12.90;5.20;;;;;;;;;;5046794;28;20118;-53
2021/06/12 07:14:44;;;;;;;12.75;5.40;;;;;;;;;;5049872;28;20049;-53
2021/06/12 07:17:11;;;;;;;10.93;3.10;;;;;;;;;;5046367;28;20037;-57
2021/06/12 07:19:37;;;;;;;7.30;2.83;;;;;;;;;;5063770;28;20048;-55
2021/06/12 07:22:04;;;;;;;9.60;3.05;;;;;;;;;;5043032;28;20055;-57
2021/06/12 07:24:30;;;;;;;10.85;3.05;;;;;;;;;;5037998;28;20041;-55
2021/06/12 07:26:57;;;;;;;11.07;2.67;;;;;;;;;;5036912;28;20049;-55
2021/06/12 07:29:23;;;;;;;5.55;2.58;;;;;;;;;;5047883;28;20064;-54
2021/06/12 07:31:51;;;;;;;5.80;2.25;;;;;;;;;;5063926;28;20044;-55
2021/06/12 07:34:18;;;;;;;7.60;2.67;;;;;;;;;;5047605;28;20120;-56
2021/06/12 07:36:45;;;;;;;7.30;1.95;;;;;;;;;;5049929;28;20088;-57
2021/06/12 07:39:12;;;;;;;5.25;1.95;;;;;;;;;;5046523;28;20122;-58
2021/06/12 07:41:38;;;;;;;5.63;2.00;;;;;;;;;;5065153;28;20059;-57
2021/06/12 07:44:05;;;;;;;8.18;1.95;;;;;;;;;;5060325;28;20044;-55
2021/06/12 07:46:32;;;;;;;11.25;2.42;;;;;;;;;;5062228;28;20040;-57
2021/06/12 07:48:59;;;;;;;8.48;2.67;;;;;;;;;;5060630;28;20033;-57
2021/06/12 07:51:31;;;;;;;6.53;1.73;;;;;;;;;;5062804;28;20052;-57
2021/06/12 07:54:03;;;;;;;9.30;4.22;;;;;;;;;;5075856;28;20064;-57
2021/06/12 07:56:29;;;;;;;12.20;3.92;;;;;;;;;;5059592;28;20045;-54
2021/06/12 07:58:55;;;;;;;7.25;2.63;;;;;;;;;;5050214;28;20040;-58
2021/06/12 08:01:22;;;;;;;13.88;2.20;;;;;;;;;;5060929;28;20049;-53
2021/06/12 08:03:48;;;;;;;6.40;2.20;;;;;;;;;;5059109;28;20052;-58
2021/06/12 08:06:16;;;;;;;7.50;2.20;;;;;;;;;;5061664;28;20048;-59
2021/06/12 08:08:46;;;;;;;7.68;2.30;;;;;;;;;;5058401;28;20037;-59
2021/06/12 08:11:12;;;;;;;8.82;2.47;;;;;;;;;;5063736;28;20032;-56
2021/06/12 08:13:42;;;;;;;8.32;2.33;;;;;;;;;;5056685;28;20041;-58
2021/06/12 08:16:09;;;;;;;6.30;1.90;;;;;;;;;;5061040;28;20040;-54
2021/06/12 08:18:35;;;;;;;6.18;1.80;;;;;;;;;;5077084;28;20037;-57
2021/06/12 08:21:02;;;;;;;7.35;1.88;;;;;;;;;;5060921;28;20104;-53
2021/06/12 08:23:29;;;;;;;5.65;1.58;;;;;;;;;;5078994;28;20113;-57
2021/06/12 08:25:55;;;;;;;5.28;1.58;;;;;;;;;;5061133;28;20052;-58
2021/06/12 08:28:22;;;;;;;4.75;1.75;;;;;;;;;;5061256;28;20037;-57
2021/06/12 08:30:48;;;;;;;7.70;1.65;;;;;;;;;;5059228;28;20106;-57
2021/06/12 08:33:14;;;;;;;6.10;1.70;;;;;;;;;;5062137;28;20068;-57
2021/06/12 08:35:41;;;;;;;5.85;1.92;;;;;;;;;;5075020;28;20043;-59
2021/06/12 08:38:07;;;;;;;7.57;1.85;;;;;;;;;;5061484;28;20059;-54
2021/06/12 08:40:36;;;;;;;4.00;1.60;;;;;;;;;;5061228;28;20040;-56
2021/06/12 08:43:05;;;;;;;5.43;1.80;;;;;;;;;;5083326;28;20040;-55
2021/06/12 08:45:31;;;;;;;5.68;1.50;;;;;;;;;;5061772;28;20114;-57
2021/06/12 08:47:59;;;;;;;5.22;1.85;;;;;;;;;;5065036;28;20052;-55
2021/06/12 08:50:27;;;;;;;5.00;1.90;;;;;;;;;;5058630;28;20052;-53
2021/06/12 08:52:54;;;;;;;6.13;1.80;;;;;;;;;;5044266;28;20049;-58
2021/06/12 08:55:20;;;;;;;7.90;1.65;;;;;;;;;;5045617;28;20048;-52
2021/06/12 08:57:48;;;;;;;9.40;1.65;;;;;;;;;;5065265;28;20040;-56
2021/06/12 09:00:15;;;;;;;6.97;1.55;;;;;;;;;;5062444;28;20036;-55
2021/06/12 09:03:00;;;;;;;6.53;1.73;;;;;;;;;;5081915;28;20125;-56
2021/06/12 09:05:37;;;;;;;4.95;1.67;;;;;;;;;;5062317;28;20058;-54
2021/06/12 09:08:05;;;;;;;5.55;1.60;;;;;;;;;;5065061;28;20036;-56
2021/06/12 09:10:31;;;;;;;;;;;;;;;;;;5066563;28;20063;-55
2021/06/12 09:13:00;;;;;;;7.18;1.60;;;;;;;;;;5078722;28;19934;-55
2021/06/12 09:15:26;;;;;;;5.40;1.67;;;;;;;;;;5096873;28;20065;-57
2021/06/12 09:17:54;;;;;;;7.43;2.03;;;;;;;;;;5094944;28;20045;-58
2021/06/12 09:20:36;;;;;;;7.97;2.80;;;;;;;;;;5097613;28;20173;-59
2021/06/12 09:23:07;;;;;;;8.13;1.95;;;;;;;;;;5060513;28;20121;-57
2021/06/12 09:25:39;;;;;;;6.63;1.90;;;;;;;;;;5081403;28;20045;-56
2021/06/12 09:28:07;;;;;;;8.10;1.90;;;;;;;;;;5062349;28;20033;-56
2021/06/12 09:30:33;;;;;;;5.27;1.80;;;;;;;;;;5081931;28;20090;-57
2021/06/12 09:32:59;;;;;;;6.97;1.88;;;;;;;;;;5061246;28;20300;-57
2021/06/12 09:35:33;;;;;;;11.73;2.08;;;;;;;;;;5065218;28;20041;-56
2021/06/12 09:37:59;;;;;;;8.68;1.75;;;;;;;;;;5060870;28;20047;-58
2021/06/12 09:40:29;;;;;;;6.70;1.90;;;;;;;;;;5064635;28;20040;-57
2021/06/12 09:42:56;;;;;;;8.88;2.10;;;;;;;;;;5058026;28;20060;-58
2021/06/12 09:45:24;;;;;;;6.15;1.77;;;;;;;;;;5099352;28;20028;-59
2021/06/12 09:47:50;;;;;;;;;;;;;;;;;;5083349;28;20028;-56
2021/06/12 09:50:21;;;;;;;7.68;1.90;;;;;;;;;;5100094;28;19936;-53
2021/06/12 09:52:48;;;;;;;4.20;1.67;;;;;;;;;;5062951;28;20043;-53
2021/06/12 09:55:20;;;;;;;4.85;1.83;;;;;;;;;;5066625;28;20036;-51
2021/06/12 09:57:47;;;;;;;4.90;1.60;;;;;;;;;;5082340;28;20044;-52
2021/06/12 10:00:14;;;;;;;7.30;1.90;;;;;;;;;;5067089;28;20076;-58
2021/06/12 10:02:43;;;;;;;7.90;1.90;;;;;;;;;;5065964;28;20047;-55
2021/06/12 10:05:10;;;;;;;7.03;2.00;;;;;;;;;;5046281;28;20036;-56
2021/06/12 10:07:38;;;;;;;6.97;1.95;;;;;;;;;;5081174;28;20065;-54
2021/06/12 10:10:05;;;;;;;5.70;1.60;;;;;;;;;;5096882;28;20096;-54
2021/06/12 10:12:33;;;;;;;5.90;2.10;;;;;;;;;;5066503;28;20059;-53
2021/06/12 10:14:59;;;;;;;9.38;1.95;;;;;;;;;;5082373;28;20069;-58
2021/06/12 10:17:27;;;;;;;7.35;1.70;;;;;;;;;;5067435;28;20056;-52
2021/06/12 10:19:56;;;;;;;5.75;1.92;;;;;;;;;;5064535;28;20048;-51
2021/06/12 10:22:22;;;;;;;10.68;2.28;;;;;;;;;;5067350;28;20049;-54
2021/06/12 10:24:49;;;;;;;7.57;1.80;;;;;;;;;;5062239;28;20032;-57
2021/06/12 10:27:16;;;;;;;7.35;1.50;;;;;;;;;;5101054;28;20058;-56
2021/06/12 10:29:43;;;;;;;9.30;1.95;;;;;;;;;;5064072;28;20055;-57
2021/06/12 10:32:10;;;;;;;6.78;1.60;;;;;;;;;;5067175;28;20037;-55
2021/06/12 10:34:36;;;;;;;9.80;1.65;;;;;;;;;;5081031;28;20050;-56
2021/06/12 10:37:07;;;;;;;5.57;1.60;;;;;;;;;;5066664;28;20060;-55
2021/06/12 10:39:34;;;;;;;5.72;1.30;;;;;;;;;;5097076;28;20040;-54
2021/06/12 10:42:10;;;;;;;9.45;1.73;;;;;;;;;;5066630;28;20040;-54
2021/06/12 10:44:36;;;;;;;6.65;1.88;;;;;;;;;;5068099;28;20060;-55
2021/06/12 10:47:03;;;;;;;7.93;1.83;;;;;;;;;;5067648;28;20085;-53
2021/06/12 10:49:31;;;;;;;15.32;2.10;;;;;;;;;;5083995;28;20121;-56
2021/06/12 10:51:57;;;;;;;3.85;1.30;;;;;;;;;;5065428;28;20105;-55
2021/06/12 10:54:26;;;;;;;4.50;1.48;;;;;;;;;;5083868;28;20036;-53
2021/06/12 10:56:56;;;;;;;9.32;1.77;;;;;;;;;;5064043;28;20129;-52
2021/06/12 10:59:42;;;;;;;8.07;1.50;;;;;;;;;;5066212;28;20040;-56
2021/06/12 11:02:11;;;;;;;4.88;1.70;;;;;;;;;;5063616;28;20049;-52
2021/06/12 11:04:41;;;;;;;8.52;1.60;;;;;;;;;;5063553;28;20040;-56
2021/06/12 11:07:24;;;;;;;10.02;1.70;;;;;;;;;;5088272;28;20037;-60
2021/06/12 11:09:51;;;;;;;8.00;1.50;;;;;;;;;;5065481;28;20117;-57
2021/06/12 11:12:36;;;;;;;5.43;1.95;;;;;;;;;;5059483;28;20093;-55
2021/06/12 11:15:06;;;;;;;5.53;1.50;;;;;;;;;;5085461;28;20140;-55
2021/06/12 11:17:32;;;;;;;6.18;1.40;;;;;;;;;;5063140;28;20072;-58
2021/06/12 11:20:18;;;;;;;6.03;1.63;;;;;;;;;;5066545;28;20041;-56
2021/06/12 11:22:51;;;;;;;8.15;1.70;;;;;;;;;;5092545;28;20037;-58
2021/06/12 11:25:38;;;;;;;3.42;1.20;;;;;;;;;;5101438;28;20044;-55
2021/06/12 11:28:25;;;;;;;9.25;1.90;;;;;;;;;;5064091;28;20039;-57
2021/06/12 11:30:53;;;;;;;7.22;1.83;;;;;;;;;;5092643;28;20036;-55
2021/06/12 11:33:19;;;;;;;3.35;1.40;;;;;;;;;;5079860;28;20151;-52
2021/06/12 11:35:46;;;;;;;7.47;1.67;;;;;;;;;;5084882;28;20036;-50
2021/06/12 11:38:13;;;;;;;7.15;1.45;;;;;;;;;;5061834;28;20040;-54
2021/06/12 11:40:49;;;;;;;8.55;1.20;;;;;;;;;;5065100;28;20051;-56
2021/06/12 11:43:27;;;;;;;3.70;1.35;;;;;;;;;;5062109;28;20044;-57
2021/06/12 11:45:53;;;;;;;4.57;1.23;;;;;;;;;;5085104;28;20055;-57
2021/06/12 11:48:20;;;;;;;4.65;1.40;;;;;;;;;;5080595;28;20045;-55
2021/06/12 11:50:49;;;;;;;6.20;1.45;;;;;;;;;;5082750;28;20034;-55
2021/06/12 11:53:15;;;;;;;5.60;1.67;;;;;;;;;;5079790;28;20096;-58
2021/06/12 11:55:43;;;;;;;5.78;1.65;;;;;;;;;;5065763;28;20033;-55
2021/06/12 11:58:10;;;;;;;6.90;1.50;;;;;;;;;;5080202;28;20036;-54
2021/06/12 12:00:36;;;;;;;7.60;1.70;;;;;;;;;;5065492;28;20050;-56
2021/06/12 12:03:05;;;;;;;5.55;1.42;;;;;;;;;;5059252;28;20155;-57
2021/06/12 12:05:35;;;;;;;10.02;1.60;;;;;;;;;;5064955;28;20044;-55
2021/06/12 12:08:01;;;;;;;7.43;1.60;;;;;;;;;;5056620;28;20028;-56
2021/06/12 12:10:28;;;;;;;6.90;1.70;;;;;;;;;;5061450;28;20068;-52
2021/06/12 12:12:56;;;;;;;11.18;1.73;;;;;;;;;;5061052;28;20034;-56
2021/06/12 12:15:38;;;;;;;6.53;1.70;;;;;;;;;;5055493;28;20033;-57
2021/06/12 12:18:05;;;;;;;10.00;1.67;;;;;;;;;;5060624;28;20033;-57
2021/06/12 12:20:34;;;;;;;5.95;1.40;;;;;;;;;;5084409;27;20052;-52
2021/06/12 12:23:00;;;;;;;6.63;1.50;;;;;;;;;;5082419;28;20040;-57
2021/06/12 12:25:27;;;;;;;7.47;1.50;;;;;;;;;;5061942;28;20036;-59
2021/06/12 12:28:06;;;;;;;10.07;1.75;;;;;;;;;;5100934;28;20036;-58
2021/06/12 12:30:32;;;;;;;7.57;1.73;;;;;;;;;;5079596;28;20051;-54
2021/06/12 12:33:07;;;;;;;7.65;1.83;;;;;;;;;;5065508;28;20053;-56
2021/06/12 12:35:33;;;;;;;4.68;1.35;;;;;;;;;;5062396;28;20083;-57
2021/06/12 12:38:10;;;;;;;8.15;1.63;;;;;;;;;;5067061;28;20040;-54
2021/06/12 12:40:37;;;;;;;7.50;1.60;;;;;;;;;;5061588;28;20064;-57
2021/06/12 12:43:05;;;;;;;5.68;1.30;;;;;;;;;;5083737;28;20033;-56
2021/06/12 12:45:31;;;;;;;10.32;2.10;;;;;;;;;;5071625;28;20064;-58
2021/06/12 12:47:58;;;;;;;6.40;1.80;;;;;;;;;;5098786;28;20032;-58
2021/06/12 12:50:24;;;;;;;6.22;1.67;;;;;;;;;;5071182;28;20147;-57
2021/06/12 12:53:02;;;;;;;6.10;1.90;;;;;;;;;;5065697;28;20036;-55
2021/06/12 12:55:28;;;;;;;9.18;1.80;;;;;;;;;;5061809;28;20044;-56
2021/06/12 12:57:55;;;;;;;7.07;1.95;;;;;;;;;;5083534;28;20036;-58
2021/06/12 13:00:25;;;;;;;6.93;1.75;;;;;;;;;;5057098;28;20068;-59
2021/06/12 13:02:51;;;;;;;5.68;1.50;;;;;;;;;;5079528;28;20124;-58
2021/06/12 13:05:17;;;;;;;6.18;2.00;;;;;;;;;;5047716;28;20048;-59
2021/06/12 13:07:43;;;;;;;4.78;1.40;;;;;;;;;;5065951;28;20047;-57
2021/06/12 13:10:12;;;;;;;6.15;1.73;;;;;;;;;;5094856;28;20076;-53
2021/06/12 13:12:38;;;;;;;7.00;1.85;;;;;;;;;;5080309;28;20032;-58
2021/06/12 13:15:07;;;;;;;6.13;1.65;;;;;;;;;;5081757;28;20051;-56
2021/06/12 13:17:36;;;;;;;7.97;1.92;;;;;;;;;;5062356;28;20040;-57
2021/06/12 13:20:06;;;;;;;10.85;2.05;;;;;;;;;;5065976;28;20029;-57
2021/06/12 13:22:33;;;;;;;8.43;1.77;;;;;;;;;;5090305;28;20062;-56
2021/06/12 13:25:02;;;;;;;10.48;1.70;;;;;;;;;;5084106;28;20048;-57
2021/06/12 13:27:39;;;;;;;9.23;1.52;;;;;;;;;;5065217;28;20088;-56
2021/06/12 13:30:09;;;;;;;7.32;1.45;;;;;;;;;;5083391;28;20055;-58
2021/06/12 13:32:36;;;;;;;6.53;1.77;;;;;;;;;;5062599;28;20040;-58
2021/06/12 13:35:04;;;;;;;7.57;1.70;;;;;;;;;;5066245;28;20071;-58
2021/06/12 13:37:31;;;;;;;9.57;1.40;;;;;;;;;;5086391;28;20106;-58
2021/06/12 13:39:59;;;;;;;10.95;1.90;;;;;;;;;;5064035;28;20139;-59
2021/06/12 13:42:25;;;;;;;;;;;;;;;;;;5073742;28;20037;-59
2021/06/12 13:45:17;;;;;;;6.10;1.60;;;;;;;;;;5064054;28;19928;-57
2021/06/12 13:47:45;;;;;;;5.43;1.67;;;;;;;;;;5012095;28;20056;-56
2021/06/12 13:50:11;;;;;;;8.53;1.50;;;;;;;;;;5065636;28;20077;-58
2021/06/12 13:52:37;;;;;;;6.22;1.77;;;;;;;;;;5062046;28;20076;-55
2021/06/12 13:55:09;;;;;;;9.13;1.90;;;;;;;;;;5065537;28;20061;-57
2021/06/12 13:57:37;;;;;;;7.03;1.83;;;;;;;;;;5059346;28;20051;-59
2021/06/12 14:00:03;;;;;;;6.55;1.65;;;;;;;;;;5065162;28;20126;-56
2021/06/12 14:02:29;;;;;;;6.85;1.65;;;;;;;;;;5058838;28;20067;-59
2021/06/12 14:04:57;;;;;;;11.85;1.77;;;;;;;;;;5071879;28;20033;-57
2021/06/12 14:07:24;;;;;;;5.17;1.37;;;;;;;;;;5073123;28;20045;-55
2021/06/12 14:09:50;;;;;;;4.68;1.48;;;;;;;;;;5071206;28;20106;-58
2021/06/12 14:12:16;;;;;;;4.95;1.20;;;;;;;;;;5064506;28;20033;-58
2021/06/12 14:14:45;;;;;;;4.18;1.60;;;;;;;;;;5063208;28;20060;-57
2021/06/12 14:17:12;;;;;;;3.97;1.50;;;;;;;;;;5065629;28;20037;-57
2021/06/12 14:19:38;;;;;;;8.70;1.48;;;;;;;;;;5062538;28;20047;-58
2021/06/12 14:22:06;;;;;;;5.07;1.40;;;;;;;;;;5063666;28;20048;-58
2021/06/12 14:24:32;;;;;;;4.40;1.10;;;;;;;;;;5061984;28;20130;-58
2021/06/12 14:26:59;;;;;;;4.28;1.23;;;;;;;;;;5064698;28;20122;-57
2021/06/12 14:29:27;;;;;;;7.18;1.33;;;;;;;;;;5063241;28;20049;-58
2021/06/12 14:31:53;;;;;;;4.33;1.37;;;;;;;;;;5063954;28;20041;-58
2021/06/12 14:34:19;;;;;;;3.35;1.10;;;;;;;;;;5060354;28;20350;-58
2021/06/12 14:36:44;;;;;;;2.85;1.10;;;;;;;;;;5065968;28;20032;-54
2021/06/12 14:39:12;;;;;;;5.75;1.33;;;;;;;;;;5068744;28;20046;-59
2021/06/12 14:41:41;;;;;;;4.67;1.07;;;;;;;;;;5067152;28;20036;-59